Time;durP1;ratioP1;P1;durP2;ratioP2;P2;SDS_P1;SDS_P2;PMS_P1;PMS_P2;Temp;Humidity;BMP_temperature;BMP_pressure;BME280_temperature;BME280_humidity;BME280_pressure;Samples;Min_cycle;Max_cycle;Signal;HPM_P1;HPM_P2
2022/11/04 00:01:47;;;;;;;13.83;2.23;;;;;;;;;;5059729;28;20273;-82
2022/11/04 00:04:17;;;;;;;6.40;1.50;;;;;;;;;;5053328;28;20195;-83
2022/11/04 00:06:44;;;;;;;8.63;1.77;;;;;;;;;;5067330;28;20234;-82
2022/11/04 00:09:13;;;;;;;9.53;1.57;;;;;;;;;;5077914;28;20291;-82
2022/11/04 00:14:37;;;;;;;7.27;1.40;;;;;;;;;;5010863;28;20251;-82
2022/11/04 00:17:20;;;;;;;7.77;1.50;;;;;;;;;;5011269;28;20292;-82
2022/11/04 00:30:49;;;;;;;7.07;1.20;;;;;;;;;;5010371;28;20199;-82
2022/11/04 00:33:24;;;;;;;5.07;0.90;;;;;;;;;;5010620;28;20201;-82
2022/11/04 00:35:54;;;;;;;3.93;0.90;;;;;;;;;;5009087;28;20280;-82
2022/11/04 00:38:21;;;;;;;6.43;1.07;;;;;;;;;;5010631;28;20201;-82
2022/11/04 00:40:48;;;;;;;4.27;1.30;;;;;;;;;;5009524;28;21898;-82
2022/11/04 00:43:15;;;;;;;5.07;1.03;;;;;;;;;;5010560;28;20645;-82
2022/11/04 00:45:43;;;;;;;5.07;1.03;;;;;;;;;;5009676;28;20248;-82
2022/11/04 00:48:10;;;;;;;5.77;1.23;;;;;;;;;;5025619;28;20230;-82
2022/11/04 00:50:38;;;;;;;4.87;1.07;;;;;;;;;;5072449;28;20285;-82
2022/11/04 00:53:06;;;;;;;6.07;0.90;;;;;;;;;;5061904;28;20194;-82
2022/11/04 00:55:36;;;;;;;4.70;1.20;;;;;;;;;;5062880;28;20219;-82
2022/11/04 00:58:03;;;;;;;7.47;1.50;;;;;;;;;;5074957;28;20198;-82
2022/11/04 01:00:30;;;;;;;7.63;1.00;;;;;;;;;;5072454;28;20290;-82
2022/11/04 01:02:59;;;;;;;8.03;1.20;;;;;;;;;;5063276;28;20279;-82
2022/11/04 01:05:26;;;;;;;7.80;1.20;;;;;;;;;;5074153;28;20215;-82
2022/11/04 01:07:53;;;;;;;9.77;1.50;;;;;;;;;;5058585;28;20200;-82
2022/11/04 01:10:22;;;;;;;4.30;0.90;;;;;;;;;;5062264;28;20195;-81
2022/11/04 01:12:49;;;;;;;8.73;1.27;;;;;;;;;;5065834;28;20629;-82
2022/11/04 01:15:16;;;;;;;6.20;1.20;;;;;;;;;;5055664;28;20282;-82
2022/11/04 01:17:43;;;;;;;4.87;0.87;;;;;;;;;;5071339;28;20282;-83
2022/11/04 01:20:12;;;;;;;6.87;1.00;;;;;;;;;;5072716;28;20191;-82
2022/11/04 01:22:39;;;;;;;6.73;1.30;;;;;;;;;;5067122;28;20274;-82
2022/11/04 01:25:07;;;;;;;9.70;1.57;;;;;;;;;;5056375;28;20604;-82
2022/11/04 01:27:38;;;;;;;6.00;1.27;;;;;;;;;;5069013;28;20675;-81
2022/11/04 01:30:05;;;;;;;4.73;0.83;;;;;;;;;;5064916;28;20709;-82
2022/11/04 01:32:33;;;;;;;6.87;1.73;;;;;;;;;;5061099;28;20287;-82
2022/11/04 01:35:00;;;;;;;5.00;1.20;;;;;;;;;;5059021;28;20285;-82
2022/11/04 01:37:27;;;;;;;8.27;1.20;;;;;;;;;;5060529;28;20280;-79
2022/11/04 01:39:55;;;;;;;5.73;1.07;;;;;;;;;;5052408;28;20310;-79
2022/11/04 01:42:22;;;;;;;7.43;1.17;;;;;;;;;;5052761;28;20207;-79
2022/11/04 01:44:52;;;;;;;7.40;1.23;;;;;;;;;;5062046;28;20209;-79
2022/11/04 01:47:20;;;;;;;6.27;1.07;;;;;;;;;;5062612;28;20286;-79
2022/11/04 01:49:49;;;;;;;6.30;1.23;;;;;;;;;;5060328;28;20286;-79
2022/11/04 01:52:19;;;;;;;7.30;1.20;;;;;;;;;;5071676;28;20293;-79
2022/11/04 01:54:47;;;;;;;9.57;1.40;;;;;;;;;;5060686;28;20206;-79
2022/11/04 01:57:18;;;;;;;6.00;1.10;;;;;;;;;;5059188;28;20199;-79
2022/11/04 01:59:46;;;;;;;6.23;1.40;;;;;;;;;;5082507;28;20727;-79
2022/11/04 02:02:14;;;;;;;7.43;1.10;;;;;;;;;;5060237;28;20282;-79
2022/11/04 02:04:42;;;;;;;8.13;1.10;;;;;;;;;;5075660;28;20226;-79
2022/11/04 02:07:10;;;;;;;6.13;1.30;;;;;;;;;;5062736;28;20247;-79
2022/11/04 02:09:38;;;;;;;10.30;1.53;;;;;;;;;;5086661;28;20223;-79
2022/11/04 02:14:57;;;;;;;8.73;1.63;;;;;;;;;;5067919;28;20773;-79
2022/11/04 02:17:32;;;;;;;6.00;1.43;;;;;;;;;;5067245;28;20920;-80
2022/11/04 02:20:03;;;;;;;5.90;1.20;;;;;;;;;;5069091;28;20746;-79
2022/11/04 02:22:37;;;;;;;9.27;1.40;;;;;;;;;;5059997;28;20282;-78
2022/11/04 02:25:12;;;;;;;10.00;1.50;;;;;;;;;;5058176;28;20717;-78
2022/11/04 02:27:48;;;;;;;8.40;1.43;;;;;;;;;;5068094;28;20196;-78
2022/11/04 02:30:17;;;;;;;8.70;1.43;;;;;;;;;;5077721;28;20226;-78
2022/11/04 02:32:54;;;;;;;10.77;1.80;;;;;;;;;;5067029;28;20285;-78
2022/11/04 02:35:24;;;;;;;8.73;1.90;;;;;;;;;;5064354;28;20248;-78
2022/11/04 02:37:54;;;;;;;9.43;2.23;;;;;;;;;;5066040;28;20278;-78
2022/11/04 02:40:24;;;;;;;9.37;2.10;;;;;;;;;;5063807;28;20224;-78
2022/11/04 02:42:55;;;;;;;9.40;2.03;;;;;;;;;;5060183;28;20219;-79
2022/11/04 02:45:26;;;;;;;10.07;2.23;;;;;;;;;;5073818;28;20250;-79
2022/11/04 02:47:58;;;;;;;8.80;1.80;;;;;;;;;;5076801;28;20198;-78
2022/11/04 02:50:27;;;;;;;8.10;1.63;;;;;;;;;;5087171;28;20237;-78
2022/11/04 02:52:58;;;;;;;8.57;1.60;;;;;;;;;;5066205;28;20277;-79
2022/11/04 02:55:27;;;;;;;8.90;1.70;;;;;;;;;;5065314;28;20230;-78
2022/11/04 02:57:57;;;;;;;9.73;1.60;;;;;;;;;;5067628;28;20284;-79
2022/11/04 03:00:26;;;;;;;8.70;1.40;;;;;;;;;;5068733;28;20234;-78
2022/11/04 03:02:55;;;;;;;9.13;1.87;;;;;;;;;;5070880;28;20975;-79
2022/11/04 03:05:23;;;;;;;8.63;1.40;;;;;;;;;;5073273;28;20206;-78
2022/11/04 03:07:52;;;;;;;8.03;1.47;;;;;;;;;;5062872;28;20238;-78
2022/11/04 03:10:22;;;;;;;7.57;1.60;;;;;;;;;;5063942;28;20206;-78
2022/11/04 03:12:51;;;;;;;10.03;1.73;;;;;;;;;;5065894;28;20236;-79
2022/11/04 03:15:20;;;;;;;9.77;1.73;;;;;;;;;;5066113;28;20234;-79
2022/11/04 03:17:51;;;;;;;7.07;1.67;;;;;;;;;;5071272;28;20298;-79
2022/11/04 03:20:21;;;;;;;8.17;2.23;;;;;;;;;;5063877;28;20288;-79
2022/11/04 03:22:48;;;;;;;8.30;1.80;;;;;;;;;;5063102;28;20231;-78
2022/11/04 03:25:16;;;;;;;7.07;1.83;;;;;;;;;;5062501;28;20278;-78
2022/11/04 03:27:46;;;;;;;8.30;1.83;;;;;;;;;;5069875;28;20285;-79
2022/11/04 03:30:15;;;;;;;10.10;1.90;;;;;;;;;;5064952;28;20219;-78
2022/11/04 03:32:49;;;;;;;6.80;1.40;;;;;;;;;;5064811;28;20286;-79
2022/11/04 03:35:18;;;;;;;6.53;1.30;;;;;;;;;;5093768;28;20240;-78
2022/11/04 03:37:46;;;;;;;7.27;1.47;;;;;;;;;;5068583;28;20268;-78
2022/11/04 03:40:16;;;;;;;8.23;1.37;;;;;;;;;;5063385;28;20273;-79
2022/11/04 03:42:45;;;;;;;13.23;1.60;;;;;;;;;;5069756;28;20248;-79
2022/11/04 03:45:13;;;;;;;9.80;1.60;;;;;;;;;;5060945;28;20282;-78
2022/11/04 03:47:40;;;;;;;8.47;1.63;;;;;;;;;;5053856;28;20294;-78
2022/11/04 03:50:10;;;;;;;6.87;1.50;;;;;;;;;;5067292;28;20206;-78
2022/11/04 03:52:38;;;;;;;6.43;1.37;;;;;;;;;;5094506;28;20293;-78
2022/11/04 03:55:07;;;;;;;7.83;1.67;;;;;;;;;;5063628;28;20238;-78
2022/11/04 03:57:46;;;;;;;9.43;1.67;;;;;;;;;;5061813;28;20231;-78
2022/11/04 04:00:14;;;;;;;7.73;1.50;;;;;;;;;;5061798;28;20203;-78
2022/11/04 04:02:45;;;;;;;11.87;1.83;;;;;;;;;;5065927;28;20203;-78
2022/11/04 04:05:15;;;;;;;11.67;2.37;;;;;;;;;;5065835;28;20273;-78
2022/11/04 04:07:45;;;;;;;10.97;3.60;;;;;;;;;;5057633;28;20215;-78
2022/11/04 04:13:01;;;;;;;6.63;1.50;;;;;;;;;;5048778;28;20198;-78
2022/11/04 04:15:30;;;;;;;8.13;2.07;;;;;;;;;;5078434;28;20286;-78
2022/11/04 04:18:00;;;;;;;10.17;1.53;;;;;;;;;;5073585;28;20210;-78
2022/11/04 04:20:29;;;;;;;11.07;1.90;;;;;;;;;;5062069;28;20234;-79
2022/11/04 04:23:00;;;;;;;8.93;1.83;;;;;;;;;;5060630;28;20337;-79
2022/11/04 04:28:11;;;;;;;11.60;2.30;;;;;;;;;;5011235;28;20212;-78
2022/11/04 04:30:38;;;;;;;8.87;2.00;;;;;;;;;;5010990;28;20311;-78
2022/11/04 04:33:07;;;;;;;8.30;2.07;;;;;;;;;;5011024;28;20232;-78
2022/11/04 04:35:42;;;;;;;7.67;2.50;;;;;;;;;;5011145;28;20236;-78
2022/11/04 04:46:33;;;;;;;10.60;2.63;;;;;;;;;;5010344;28;20274;-79
2022/11/04 04:49:05;;;;;;;7.77;2.37;;;;;;;;;;5010443;28;20307;-79
2022/11/04 04:51:32;;;;;;;11.70;2.43;;;;;;;;;;5010669;28;20287;-78
2022/11/04 04:54:01;;;;;;;11.47;2.03;;;;;;;;;;5010216;28;20732;-78
2022/11/04 04:56:28;;;;;;;10.30;1.73;;;;;;;;;;5010727;28;20288;-79
2022/11/04 04:58:55;;;;;;;7.73;2.23;;;;;;;;;;5010078;28;20231;-79
2022/11/04 05:01:22;;;;;;;10.30;1.43;;;;;;;;;;5009874;28;20688;-79
2022/11/04 05:03:49;;;;;;;7.27;1.40;;;;;;;;;;5010259;28;20296;-79
2022/11/04 05:06:20;;;;;;;12.17;1.70;;;;;;;;;;5063223;28;20318;-79
2022/11/04 05:08:47;;;;;;;6.90;1.50;;;;;;;;;;5072730;28;20233;-79
2022/11/04 05:11:16;;;;;;;9.03;1.60;;;;;;;;;;5075041;28;20241;-79
2022/11/04 05:13:43;;;;;;;5.73;1.20;;;;;;;;;;5063725;28;20203;-79
2022/11/04 05:16:12;;;;;;;8.73;1.67;;;;;;;;;;5070083;28;20312;-79
2022/11/04 05:18:39;;;;;;;6.13;1.43;;;;;;;;;;5065449;28;20199;-78
2022/11/04 05:21:06;;;;;;;6.77;1.40;;;;;;;;;;5052238;28;20287;-79
2022/11/04 05:23:34;;;;;;;7.90;2.00;;;;;;;;;;5065090;28;20661;-79
2022/11/04 05:26:01;;;;;;;8.43;3.13;;;;;;;;;;5071548;28;20272;-79
2022/11/04 05:28:30;;;;;;;10.10;3.03;;;;;;;;;;5056909;28;20731;-79
2022/11/04 05:30:58;;;;;;;9.63;2.20;;;;;;;;;;5056145;28;20227;-79
2022/11/04 05:33:25;;;;;;;6.27;1.90;;;;;;;;;;5057703;28;20286;-79
2022/11/04 05:35:52;;;;;;;9.63;1.50;;;;;;;;;;5057750;28;20254;-78
2022/11/04 05:38:19;;;;;;;9.30;2.03;;;;;;;;;;5058150;28;20710;-79
2022/11/04 05:40:47;;;;;;;8.10;2.70;;;;;;;;;;5071389;28;20315;-79
2022/11/04 05:43:15;;;;;;;5.50;1.57;;;;;;;;;;5065548;28;20234;-79
2022/11/04 05:45:45;;;;;;;7.10;1.63;;;;;;;;;;5061573;28;20729;-80
2022/11/04 05:48:12;;;;;;;7.67;1.40;;;;;;;;;;5061581;28;20711;-79
2022/11/04 05:50:42;;;;;;;8.97;1.87;;;;;;;;;;5070541;28;20221;-79
2022/11/04 05:53:09;;;;;;;8.57;2.60;;;;;;;;;;5068752;28;20294;-79
2022/11/04 05:55:36;;;;;;;8.80;2.20;;;;;;;;;;5062274;28;20273;-79
2022/11/04 05:58:03;;;;;;;6.67;1.53;;;;;;;;;;5063165;28;20273;-79
2022/11/04 06:00:31;;;;;;;9.20;1.63;;;;;;;;;;5062483;28;20238;-79
2022/11/04 06:02:59;;;;;;;9.93;1.80;;;;;;;;;;5067487;28;20656;-78
2022/11/04 06:05:27;;;;;;;8.90;1.30;;;;;;;;;;5052294;28;20237;-78
2022/11/04 06:07:54;;;;;;;8.97;1.40;;;;;;;;;;5055130;28;20661;-78
2022/11/04 06:10:21;;;;;;;8.07;1.60;;;;;;;;;;5063971;28;20285;-78
2022/11/04 06:12:51;;;;;;;8.00;1.30;;;;;;;;;;5065898;28;20242;-78
2022/11/04 06:15:18;;;;;;;6.90;1.63;;;;;;;;;;5070479;28;20199;-78
2022/11/04 06:17:45;;;;;;;7.70;1.90;;;;;;;;;;5072395;28;20230;-78
2022/11/04 06:20:14;;;;;;;7.97;1.63;;;;;;;;;;5069585;28;20223;-78
2022/11/04 06:22:41;;;;;;;7.50;1.60;;;;;;;;;;5062031;28;20638;-78
2022/11/04 06:25:09;;;;;;;6.73;1.10;;;;;;;;;;5060159;28;20349;-79
2022/11/04 06:27:36;;;;;;;5.23;1.10;;;;;;;;;;5059472;28;20316;-79
2022/11/04 06:30:03;;;;;;;6.80;1.20;;;;;;;;;;5067753;28;20258;-79
2022/11/04 06:32:31;;;;;;;8.00;1.50;;;;;;;;;;5062211;28;20235;-79
2022/11/04 06:34:58;;;;;;;6.60;1.30;;;;;;;;;;5069876;28;20223;-80
2022/11/04 06:37:27;;;;;;;9.10;1.43;;;;;;;;;;5062275;28;20191;-78
2022/11/04 06:39:54;;;;;;;5.23;1.30;;;;;;;;;;5059350;28;20606;-78
2022/11/04 06:42:21;;;;;;;5.30;1.27;;;;;;;;;;5051457;28;20229;-76
2022/11/04 06:44:48;;;;;;;5.83;1.20;;;;;;;;;;5054366;28;20715;-77
2022/11/04 06:47:16;;;;;;;4.63;0.90;;;;;;;;;;5072532;28;20227;-77
2022/11/04 06:49:43;;;;;;;5.67;1.13;;;;;;;;;;5068210;28;20588;-76
2022/11/04 06:52:10;;;;;;;5.10;1.23;;;;;;;;;;5067272;28;20287;-77
2022/11/04 06:54:38;;;;;;;7.37;1.07;;;;;;;;;;5065321;28;20229;-77
2022/11/04 06:57:06;;;;;;;10.77;1.67;;;;;;;;;;5066302;28;20277;-77
2022/11/04 06:59:33;;;;;;;7.97;1.40;;;;;;;;;;5067082;28;20278;-77
2022/11/04 07:02:00;;;;;;;7.13;1.20;;;;;;;;;;5074838;28;20272;-77
2022/11/04 07:04:27;;;;;;;7.67;1.30;;;;;;;;;;5074115;28;20717;-76
2022/11/04 07:06:54;;;;;;;7.83;1.10;;;;;;;;;;5068599;28;20268;-77
2022/11/04 07:09:24;;;;;;;6.13;1.00;;;;;;;;;;5070480;28;20278;-76
2022/11/04 07:11:52;;;;;;;8.03;1.47;;;;;;;;;;5074279;28;20199;-77
2022/11/04 07:14:20;;;;;;;4.93;1.10;;;;;;;;;;5058267;28;20585;-77
2022/11/04 07:16:50;;;;;;;6.47;0.97;;;;;;;;;;5070477;28;20286;-76
2022/11/04 07:19:17;;;;;;;6.03;0.97;;;;;;;;;;5069616;28;20539;-76
2022/11/04 07:21:44;;;;;;;3.80;0.80;;;;;;;;;;5066419;28;20647;-77
2022/11/04 07:24:11;;;;;;;4.57;0.90;;;;;;;;;;5066084;28;20306;-77
2022/11/04 07:26:38;;;;;;;3.37;0.50;;;;;;;;;;5075090;28;20296;-77
2022/11/04 07:29:07;;;;;;;5.43;0.90;;;;;;;;;;5062532;28;20745;-77
2022/11/04 07:31:34;;;;;;;2.90;0.60;;;;;;;;;;5064607;28;20294;-77
2022/11/04 07:34:02;;;;;;;3.57;0.70;;;;;;;;;;5060636;28;20616;-77
2022/11/04 07:36:29;;;;;;;2.67;0.60;;;;;;;;;;5054252;28;20278;-77
2022/11/04 07:38:56;;;;;;;5.17;0.80;;;;;;;;;;5058504;28;20248;-77
2022/11/04 07:41:23;;;;;;;2.83;0.80;;;;;;;;;;5061002;28;20250;-77
2022/11/04 07:43:51;;;;;;;3.73;0.60;;;;;;;;;;5079595;28;20221;-77
2022/11/04 07:46:20;;;;;;;5.13;0.87;;;;;;;;;;5077776;28;20227;-77
2022/11/04 07:48:47;;;;;;;4.03;0.80;;;;;;;;;;5073763;28;21056;-77
2022/11/04 07:51:16;;;;;;;5.50;0.77;;;;;;;;;;5074591;28;20675;-77
2022/11/04 07:53:43;;;;;;;3.90;0.80;;;;;;;;;;5063971;28;20230;-77
2022/11/04 07:56:11;;;;;;;3.00;0.50;;;;;;;;;;5060636;28;20235;-77
2022/11/04 07:58:38;;;;;;;5.20;0.70;;;;;;;;;;5081155;28;20230;-78
2022/11/04 08:01:07;;;;;;;5.80;0.80;;;11.50;99.90;;;;;;5084509;28;20618;-77
2022/11/04 08:03:36;;;;;;;2.33;0.60;;;11.80;99.90;;;;;;5058501;28;20234;-77
2022/11/04 08:06:06;;;;;;;4.07;0.77;;;12.70;99.90;;;;;;5056076;28;20227;-78
2022/11/04 08:08:33;;;;;;;4.43;1.10;;;13.20;99.90;;;;;;5085170;28;20761;-78
2022/11/04 08:11:03;;;;;;;3.83;0.80;;;13.50;99.90;;;;;;5069565;28;20191;-78
2022/11/04 08:13:32;;;;;;;2.30;0.60;;;14.00;99.90;;;;;;5073270;28;20203;-78
2022/11/04 08:16:02;;;;;;;2.50;0.52;;;14.30;99.90;;;;;;5068914;28;20231;-78
2022/11/04 08:18:30;;;;;;;3.13;0.70;;;14.60;99.90;;;;;;5061605;28;20688;-78
2022/11/04 08:21:01;;;;;;;4.50;1.08;;;14.80;99.90;;;;;;5053990;28;20231;-78
2022/11/04 08:23:28;;;;;;;4.03;1.00;;;15.20;99.90;;;;;;5076481;28;20210;-78
2022/11/04 08:25:56;;;;;;;2.85;0.80;;;15.50;99.90;;;;;;5073680;28;20296;-78
2022/11/04 08:28:23;;;;;;;2.50;0.80;;;15.30;99.90;;;;;;5058212;28;20219;-78
2022/11/04 08:30:55;;;;;;;2.78;0.60;;;15.30;99.90;;;;;;5064585;28;20204;-78
2022/11/04 08:33:23;;;;;;;4.95;0.90;;;15.40;99.90;;;;;;5066460;28;20257;-78
2022/11/04 08:35:50;;;;;;;3.47;0.88;;;14.90;99.90;;;;;;5073418;28;20298;-78
2022/11/04 08:38:18;;;;;;;2.00;0.75;;;15.00;99.90;;;;;;5072921;28;20287;-78
2022/11/04 08:40:46;;;;;;;3.53;0.65;;;15.20;99.90;;;;;;5097514;28;20267;-78
2022/11/04 08:43:12;;;;;;;2.60;0.88;;;14.60;99.90;;;;;;5053441;28;20287;-79
2022/11/04 08:45:41;;;;;;;2.30;0.88;;;15.00;99.90;;;;;;5053155;28;20675;-78
2022/11/04 08:48:08;;;;;;;2.40;0.75;;;15.30;99.90;;;;;;5069417;28;20250;-78
2022/11/04 08:50:35;;;;;;;3.97;1.00;;;15.00;99.90;;;;;;5053941;28;20231;-79
2022/11/04 08:53:02;;;;;;;2.15;0.60;;;14.90;99.90;;;;;;5052711;28;20266;-78
2022/11/04 08:55:30;;;;;;;3.00;0.90;;;15.40;99.90;;;;;;5069925;28;20280;-79
2022/11/04 08:57:58;;;;;;;2.05;0.90;;;15.30;99.90;;;;;;5068886;28;20199;-78
2022/11/04 09:00:25;;;;;;;3.13;1.08;;;14.90;99.90;;;;;;5072481;28;20231;-79
2022/11/04 09:02:54;;;;;;;4.68;1.00;;;14.90;99.90;;;;;;5060799;28;20718;-78
2022/11/04 09:05:21;;;;;;;4.50;1.10;;;14.70;99.90;;;;;;5061832;28;20256;-78
2022/11/04 09:07:48;;;;;;;3.30;0.85;;;14.10;99.90;;;;;;4381026;28;10000045;-78
2022/11/04 09:10:16;;;;;;;3.15;0.80;;;14.50;99.90;;;;;;5072432;28;20277;-78
2022/11/04 09:12:44;;;;;;;2.17;0.70;;;14.90;99.90;;;;;;5069955;28;20206;-79
2022/11/04 09:15:12;;;;;;;4.78;1.20;;;14.90;99.90;;;;;;5056185;28;20290;-79
2022/11/04 09:17:39;;;;;;;3.90;1.08;;;14.90;99.90;;;;;;5065974;28;20230;-79
2022/11/04 09:20:07;;;;;;;4.35;1.15;;;15.10;99.90;;;;;;5068423;28;20634;-79
2022/11/04 09:22:34;;;;;;;4.03;1.23;;;15.10;99.90;;;;;;5060045;28;20231;-79
2022/11/04 09:25:04;;;;;;;4.28;1.08;;;16.00;99.90;;;;;;5073706;28;20233;-78
2022/11/04 09:27:31;;;;;;;6.07;1.20;;;16.20;99.90;;;;;;5064365;28;20247;-78
2022/11/04 09:29:59;;;;;;;5.03;1.30;;;16.10;99.90;;;;;;5069732;28;20246;-79
2022/11/04 09:32:26;;;;;;;6.50;1.30;;;15.60;99.90;;;;;;5067950;28;20202;-79
2022/11/04 09:34:53;;;;;;;4.95;1.70;;;;;;;;;;5052681;28;20242;-78
2022/11/04 09:37:24;;;;;;;4.28;1.60;;;;;;;;;;5056054;28;20282;-79
2022/11/04 09:39:51;;;;;;;5.85;1.52;;;;;;;;;;5070001;28;20273;-79
2022/11/04 09:42:25;;;;;;;5.55;1.58;;;;;;;;;;5072546;28;20238;-78
2022/11/04 09:44:55;;;;;;;6.28;1.63;;;;;;;;;;5087261;28;20673;-79
2022/11/04 09:47:24;;;;;;;8.52;2.08;;;;;;;;;;5079119;28;20609;-79
2022/11/04 09:49:54;;;;;;;5.82;1.52;;;;;;;;;;5059872;28;20286;-79
2022/11/04 09:52:24;;;;;;;4.95;1.80;;;;;;;;;;5058619;28;20203;-79
2022/11/04 09:54:53;;;;;;;4.43;1.42;;;;;;;;;;5072082;28;20219;-79
2022/11/04 09:57:21;;;;;;;6.13;1.63;;;;;;;;;;5071878;28;20206;-79
2022/11/04 09:59:48;;;;;;;5.47;1.60;;;;;;;;;;5071582;28;20223;-79
2022/11/04 10:02:33;;;;;;;5.88;1.65;;;;;;;;;;5063543;28;20200;-79
2022/11/04 10:05:05;;;;;;;5.90;1.50;;;;;;;;;;5052951;28;20283;-79
2022/11/04 10:07:44;;;;;;;5.50;1.58;;;;;;;;;;5051859;28;20302;-79
2022/11/04 10:10:14;;;;;;;6.38;1.70;;;;;;;;;;5060320;28;20640;-79
2022/11/04 10:12:55;;;;;;;9.63;1.85;;;;;;;;;;5059498;28;20291;-79
2022/11/04 10:15:32;;;;;;;5.22;1.33;;;;;;;;;;5066361;28;20211;-79
2022/11/04 10:18:06;;;;;;;5.72;1.45;;;;;;;;;;5062293;28;20263;-78
2022/11/04 10:20:42;;;;;;;9.63;1.73;;;;;;;;;;5060906;28;20632;-79
2022/11/04 10:23:15;;;;;;;4.68;1.30;;;;;;;;;;5065867;28;20662;-78
2022/11/04 10:25:47;;;;;;;8.02;1.40;;;;;;;;;;5067319;28;20286;-78
2022/11/04 10:28:16;;;;;;;7.35;1.55;;;;;;;;;;5059080;28;20273;-78
2022/11/04 10:30:45;;;;;;;6.82;1.45;;;;;;;;;;5068421;28;20285;-78
2022/11/04 10:33:17;;;;;;;6.78;1.38;;;;;;;;;;5070566;28;20234;-78
2022/11/04 10:35:48;;;;;;;10.00;1.77;;;;;;;;;;5066745;28;20260;-78
2022/11/04 10:38:17;;;;;;;6.18;1.33;;;;;;;;;;5060382;28;20286;-77
2022/11/04 10:40:46;;;;;;;7.50;1.50;;;;;;;;;;5068171;28;20318;-77
2022/11/04 10:43:16;;;;;;;5.95;1.50;;;;;;;;;;5099997;28;20213;-77
2022/11/04 10:45:49;;;;;;;10.07;1.40;;;;;;;;;;5065481;28;20726;-80
2022/11/04 10:48:20;;;;;;;6.13;1.60;;;;;;;;;;5068487;28;20280;-78
2022/11/04 10:50:52;;;;;;;6.05;1.48;;;;;;;;;;5065717;28;20291;-78
2022/11/04 10:53:20;;;;;;;6.75;1.20;;;;;;;;;;5064817;28;20227;-79
2022/11/04 10:55:52;;;;;;;8.13;1.67;;;;;;;;;;5066041;28;20286;-79
2022/11/04 10:58:22;;;;;;;7.05;1.50;;;;;;;;;;5068206;28;20230;-78
2022/11/04 11:00:50;;;;;;;6.05;1.45;;;;;;;;;;5064678;28;20283;-78
2022/11/04 11:03:25;;;;;;;5.70;1.75;;;;;;;;;;5064488;28;20191;-79
2022/11/04 11:05:54;;;;;;;9.23;1.90;;;;;;;;;;5069588;28;20721;-78
2022/11/04 11:08:28;;;;;;;6.88;1.52;;;;;;;;;;5068778;28;20670;-78
2022/11/04 11:10:56;;;;;;;5.15;1.27;;;;;;;;;;5055176;28;20195;-79
2022/11/04 11:13:27;;;;;;;5.70;1.80;;;;;;;;;;5068293;28;20226;-79
2022/11/04 11:16:15;;;;;;;10.95;1.85;;;;;;;;;;5055006;28;20282;-79
2022/11/04 11:18:43;;;;;;;6.13;1.90;;;;;;;;;;5068923;28;20226;-79
2022/11/04 11:21:13;;;;;;;6.10;1.67;;;;;;;;;;5065146;28;20227;-79
2022/11/04 11:23:46;;;;;;;9.60;1.52;;;;;;;;;;5057541;28;20688;-78
2022/11/04 11:26:15;;;;;;;11.30;1.90;;;;;;;;;;5059294;28;20295;-78
2022/11/04 11:28:48;;;;;;;5.18;1.65;;;;;;;;;;5063600;28;20301;-78
2022/11/04 11:31:22;;;;;;;6.43;1.42;;;;;;;;;;5073705;28;20230;-79
2022/11/04 11:33:51;;;;;;;8.80;1.77;;;;;;;;;;5074808;28;20203;-78
2022/11/04 11:36:22;;;;;;;5.93;1.65;;;;;;;;;;5074676;28;20199;-79
2022/11/04 11:38:55;;;;;;;6.93;1.30;;;;;;;;;;5059345;28;20223;-78
2022/11/04 11:41:30;;;;;;;8.80;2.03;;;;;;;;;;5064968;28;20262;-78
2022/11/04 11:43:58;;;;;;;7.90;1.83;;;;;;;;;;5054336;28;20206;-78
2022/11/04 11:46:27;;;;;;;7.32;2.10;;;;;;;;;;5066871;28;20237;-79
2022/11/04 11:48:59;;;;;;;6.75;1.60;;;;;;;;;;5054249;28;20219;-79
2022/11/04 11:51:29;;;;;;;5.43;1.70;;;;;;;;;;5068027;28;20286;-78
2022/11/04 11:54:17;;;;;;;6.40;1.58;;;;;;;;;;5061547;28;20242;-78
2022/11/04 11:56:47;;;;;;;5.53;1.40;;;;;;;;;;5055832;28;20372;-78
2022/11/04 11:59:18;;;;;;;8.27;1.63;;;;;;;;;;5067551;28;20195;-76
2022/11/04 12:01:49;;;;;;;8.18;1.75;;;;;;;;;;5066057;28;20572;-79
2022/11/04 12:04:18;;;;;;;6.50;1.92;;;;;;;;;;5084979;28;20226;-79
2022/11/04 12:06:50;;;;;;;5.13;1.60;;;;;;;;;;5062280;28;20208;-78
2022/11/04 12:09:26;;;;;;;5.47;1.80;;;;;;;;;;5065740;28;20309;-78
2022/11/04 12:11:59;;;;;;;10.38;1.77;;;;;;;;;;5073688;28;20277;-79
2022/11/04 12:14:35;;;;;;;7.40;2.30;;;;;;;;;;5068703;28;20227;-79
2022/11/04 12:17:07;;;;;;;9.27;2.00;;;;;;;;;;5060157;28;20231;-78
2022/11/04 12:19:42;;;;;;;6.50;1.90;;;;;;;;;;5071162;28;20199;-79
2022/11/04 12:22:14;;;;;;;9.07;2.10;;;;;;;;;;5070004;28;20217;-78
2022/11/04 12:24:46;;;;;;;7.30;2.00;;;;;;;;;;5063361;28;20452;-78
2022/11/04 12:27:17;;;;;;;7.82;2.05;;;;;;;;;;5070099;28;20200;-78
2022/11/04 12:29:52;;;;;;;5.55;1.63;;;;;;;;;;5070601;28;20322;-77
2022/11/04 12:32:23;;;;;;;6.85;2.28;;;;;;;;;;5062266;28;20257;-78
2022/11/04 12:34:55;;;;;;;8.23;2.35;;;;;;;;;;5067618;28;20242;-77
2022/11/04 12:37:29;;;;;;;6.93;1.77;;;;;;;;;;5070234;28;20263;-78
2022/11/04 12:40:03;;;;;;;7.78;2.38;;;;;;;;;;5058625;28;20774;-78
2022/11/04 12:42:35;;;;;;;8.00;2.22;;;;;;;;;;5070397;28;20732;-77
2022/11/04 12:45:07;;;;;;;8.55;2.00;;;;;;;;;;5072802;28;20195;-78
2022/11/04 12:47:36;;;;;;;7.97;2.40;;;;;;;;;;5064531;28;20250;-78
2022/11/04 12:50:07;;;;;;;6.72;2.28;;;;;;;;;;5069890;28;20882;-78
2022/11/04 12:52:40;;;;;;;5.18;1.90;;;;;;;;;;5066442;28;20283;-78
2022/11/04 12:55:18;;;;;;;6.53;2.00;;;;;;;;;;5070935;28;20653;-79
2022/11/04 12:57:50;;;;;;;6.55;1.83;;;;;;;;;;5060527;28;20207;-78
2022/11/04 13:00:20;;;;;;;8.10;1.80;;;;;;;;;;5064226;28;20224;-79
2022/11/04 13:02:50;;;;;;;6.07;1.88;;;;;;;;;;5071011;28;20195;-79
2022/11/04 13:05:27;;;;;;;7.28;1.85;;;;;;;;;;5099134;28;20253;-78
2022/11/04 13:07:57;;;;;;;8.23;1.85;;;;;;;;;;5057624;28;20234;-79
2022/11/04 13:10:28;;;;;;;8.00;2.25;;;;;;;;;;5064803;28;20284;-78
2022/11/04 13:12:56;;;;;;;9.77;2.25;;;;;;;;;;5060820;28;20284;-78
2022/11/04 13:15:24;;;;;;;9.93;2.30;;;;;;;;;;5068775;28;20233;-79
2022/11/04 13:17:55;;;;;;;8.73;2.28;;;;;;;;;;5060399;28;20239;-77
2022/11/04 13:20:27;;;;;;;6.95;1.98;;;;;;;;;;5071030;28;20234;-80
2022/11/04 13:22:59;;;;;;;7.15;2.20;;;;;;;;;;5068889;28;20246;-78
2022/11/04 13:25:29;;;;;;;11.02;2.17;;;;;;;;;;5067112;28;20290;-79
2022/11/04 13:27:56;;;;;;;8.23;1.67;;;;;;;;;;5052656;28;20652;-79
2022/11/04 13:30:27;;;;;;;9.52;1.88;;;;;;;;;;5063488;28;20344;-79
2022/11/04 13:32:56;;;;;;;6.03;1.92;;;;;;;;;;5067466;28;20295;-78
2022/11/04 13:35:30;;;;;;;7.45;1.67;;;;;;;;;;5067864;28;20242;-78
2022/11/04 13:38:03;;;;;;;8.68;1.88;;;;;;;;;;5071748;28;20191;-78
2022/11/04 13:40:34;;;;;;;9.10;2.13;;;;;;;;;;5053958;28;20231;-78
2022/11/04 13:46:03;;;;;;;10.07;2.07;;;;;;;;;;5072647;28;20194;-78
2022/11/04 13:48:32;;;;;;;9.97;1.87;;;;;;;;;;5071928;28;20621;-78
2022/11/04 13:51:01;;;;;;;9.83;1.90;;;;;;;;;;5069507;28;20615;-79
2022/11/04 13:53:46;;;;;;;6.43;1.70;;;;;;;;;;5062893;28;20202;-80
2022/11/04 13:56:27;;;;;;;10.47;2.00;;;;;;;;;;5069499;28;20241;-79
2022/11/04 13:58:56;;;;;;;7.17;2.07;;;;;;;;;;5069667;28;20239;-79
2022/11/04 14:01:27;;;;;;;9.10;2.20;;;;;;;;;;5070742;28;20724;-79
2022/11/04 14:03:55;;;;;;;7.87;1.93;;;;;;;;;;5070112;28;20294;-79
2022/11/04 14:06:41;;;;;;;8.10;1.97;;;;;;;;;;5069079;28;20683;-78
2022/11/04 14:09:33;;;;;;;9.37;2.00;;;;;;;;;;5067089;28;20316;-79
2022/11/04 14:12:19;;;;;;;8.30;1.70;;;;;;;;;;5064200;28;20245;-79
2022/11/04 14:14:47;;;;;;;8.53;1.67;;;;;;;;;;5068609;28;20207;-79
2022/11/04 14:17:29;;;;;;;6.93;1.30;;;;;;;;;;5068070;28;20620;-78
2022/11/04 14:20:00;;;;;;;7.57;1.43;;;;;;;;;;5069116;28;20223;-78
2022/11/04 14:22:32;;;;;;;13.03;2.23;;;;;;;;;;5059632;28;20253;-79
2022/11/04 14:25:01;;;;;;;7.60;1.40;;;;;;;;;;5064600;28;20226;-78
2022/11/04 14:27:31;;;;;;;7.50;1.67;;;;;;;;;;5067126;28;20238;-78
2022/11/04 14:29:59;;;;;;;6.83;1.47;;;;;;;;;;5066088;28;20310;-79
2022/11/04 14:32:28;;;;;;;6.57;1.37;;;;;;;;;;5061495;28;20227;-79
2022/11/04 14:35:00;;;;;;;9.23;1.87;;;;;;;;;;5065979;28;20195;-79
2022/11/04 14:37:28;;;;;;;6.33;1.43;;;;;;;;;;5064579;28;20297;-78
2022/11/04 14:39:58;;;;;;;8.23;1.47;;;;;;;;;;5071237;28;20635;-79
2022/11/04 14:42:40;;;;;;;10.77;1.97;;;;;;;;;;5070284;28;20222;-78
2022/11/04 14:45:09;;;;;;;8.27;1.60;;;;;;;;;;5063868;28;20687;-79
2022/11/04 14:47:37;;;;;;;6.83;1.40;;;;;;;;;;5052462;28;20226;-78
2022/11/04 14:50:07;;;;;;;7.90;1.80;;;;;;;;;;5055123;28;20212;-78
2022/11/04 14:52:36;;;;;;;13.23;3.33;;;;;;;;;;5062437;28;20249;-78
2022/11/04 14:55:05;;;;;;;9.97;2.20;;;;;;;;;;5071689;28;20203;-78
2022/11/04 14:57:37;;;;;;;7.17;1.93;;;;;;;;;;5065077;28;20295;-79
2022/11/04 15:00:20;;;;;;;7.90;1.57;;;;;;;;;;5070465;28;20199;-79
2022/11/04 15:02:50;;;;;;;5.03;1.30;;;;;;;;;;5059981;28;20203;-78
2022/11/04 15:05:23;;;;;;;7.47;1.30;;;;;;;;;;5064863;28;20281;-78
2022/11/04 15:07:50;;;;;;;9.40;1.80;;;;;;;;;;5064443;28;20223;-78
2022/11/04 15:10:21;;;;;;;8.97;1.90;;;;;;;;;;5054876;28;20277;-78
2022/11/04 15:12:53;;;;;;;10.80;2.17;;;;;;;;;;5064133;28;20261;-79
2022/11/04 15:15:28;;;;;;;7.97;1.80;;;;;;;;;;5068356;28;20580;-78
2022/11/04 15:17:59;;;;;;;7.83;1.90;;;;;;;;;;5064817;28;20671;-79